Time,TemperatureF,DewpointF,PressureIn,WindDirection,WindDirectionDegrees,WindSpeedMPH,WindSpeedGustMPH,Humidity,HourlyPrecipIn,Conditions,Clouds,dailyrainin,SoftwareType,DateUTC
2013-06-24 00:01:00,65.0,65.0,29.89,North,352,0.0,5.0,100,0.00,,---,0.18,VWS V14.01,2013-06-24 04:01:00,
2013-06-24 00:06:00,65.0,65.0,29.89,North,352,0.0,0.0,100,0.03,,---,0.03,VWS V14.01,2013-06-24 04:06:00,
2013-06-24 00:11:00,65.3,65.3,29.89,North,352,0.0,0.0,100,0.03,,---,0.03,VWS V14.01,2013-06-24 04:11:00,
2013-06-24 00:16:00,64.8,64.8,29.88,North,352,0.0,0.0,100,0.03,,---,0.03,VWS V14.01,2013-06-24 04:16:00,
2013-06-24 00:21:00,64.7,64.7,29.88,North,352,0.0,0.0,100,0.03,,---,0.03,VWS V14.01,2013-06-24 04:21:00,
2013-06-24 00:26:00,64.7,64.7,29.88,North,352,0.0,0.0,100,0.03,,---,0.03,VWS V14.01,2013-06-24 04:26:00,
2013-06-24 00:31:00,64.8,64.8,29.88,North,352,0.0,0.0,100,0.03,,---,0.03,VWS V14.01,2013-06-24 04:31:00,
2013-06-24 00:36:00,65.2,65.2,29.88,North,352,0.0,0.0,100,0.03,,---,0.03,VWS V14.01,2013-06-24 04:36:00,
2013-06-24 00:41:00,65.2,65.2,29.88,North,352,0.0,0.0,100,0.03,,---,0.03,VWS V14.01,2013-06-24 04:41:00,
2013-06-24 00:46:00,65.3,65.3,29.87,North,352,0.0,0.0,100,0.03,,---,0.03,VWS V14.01,2013-06-24 04:46:00,
2013-06-24 00:51:00,65.3,65.3,29.87,North,352,0.0,0.0,100,0.03,,---,0.03,VWS V14.01,2013-06-24 04:51:00,
2013-06-24 00:56:00,65.6,65.6,29.87,North,352,0.0,0.0,100,0.03,,---,0.03,VWS V14.01,2013-06-24 04:56:00,
2013-06-24 01:01:00,65.6,65.6,29.86,North,352,0.0,0.0,100,0.03,,---,0.03,VWS V14.01,2013-06-24 05:01:00,
2013-06-24 01:06:00,65.6,65.6,29.86,North,352,0.0,0.0,100,0.03,,---,0.03,VWS V14.01,2013-06-24 05:06:00,
2013-06-24 01:11:00,65.6,65.6,29.86,North,352,0.0,0.0,100,0.03,,---,0.03,VWS V14.01,2013-06-24 05:11:00,
2013-06-24 01:17:00,65.5,65.5,29.87,North,352,0.0,0.0,100,0.03,,---,0.03,VWS V14.01,2013-06-24 05:17:00,
2013-06-24 01:21:00,65.6,65.6,29.87,North,352,0.0,0.0,100,0.03,,---,0.03,VWS V14.01,2013-06-24 05:21:00,
2013-06-24 01:26:00,64.7,64.7,29.87,North,352,0.0,0.0,100,0.03,,---,0.03,VWS V14.01,2013-06-24 05:26:00,
2013-06-24 01:31:00,64.7,64.7,29.86,North,352,0.0,0.0,100,0.03,,---,0.03,VWS V14.01,2013-06-24 05:31:00,
2013-06-24 01:37:00,65.2,65.2,29.86,North,352,0.0,0.0,100,0.03,,---,0.03,VWS V14.01,2013-06-24 05:37:00,
2013-06-24 01:42:00,65.2,65.2,29.86,North,352,0.0,0.0,100,0.03,,---,0.03,VWS V14.01,2013-06-24 05:42:00,
2013-06-24 01:47:00,65.2,65.2,29.86,WNW,284,0.0,0.0,100,0.03,,---,0.03,VWS V14.01,2013-06-24 05:47:00,
2013-06-24 01:52:00,65.6,65.6,29.86,SSW,205,0.0,0.0,100,0.03,,---,0.03,VWS V14.01,2013-06-24 05:52:00,
2013-06-24 01:57:00,65.5,65.5,29.86,SSW,208,5.0,5.0,100,0.03,,---,0.03,VWS V14.01,2013-06-24 05:57:00,
2013-06-24 02:02:00,65.8,65.8,29.87,SSW,209,5.0,5.0,100,0.00,,---,0.03,VWS V14.01,2013-06-24 06:02:00,
2013-06-24 02:07:00,65.0,65.0,29.87,SW,219,5.0,5.0,100,0.00,,---,0.03,VWS V14.01,2013-06-24 06:07:00,
2013-06-24 02:12:00,65.0,65.0,29.87,SW,220,2.0,5.0,100,0.00,,---,0.03,VWS V14.01,2013-06-24 06:12:00,
2013-06-24 02:17:00,65.0,65.0,29.87,SSW,209,4.0,6.0,100,0.00,,---,0.03,VWS V14.01,2013-06-24 06:17:00,
2013-06-24 02:23:00,65.8,65.8,29.87,SSW,212,5.0,6.0,100,0.00,,---,0.03,VWS V14.01,2013-06-24 06:23:00,
2013-06-24 02:28:00,65.5,65.5,29.87,SSW,209,5.0,6.0,100,0.00,,---,0.03,VWS V14.01,2013-06-24 06:28:00,
2013-06-24 02:33:00,65.3,65.3,29.86,SSW,213,0.0,6.0,100,0.00,,---,0.03,VWS V14.01,2013-06-24 06:33:00,
2013-06-24 02:38:00,66.0,66.0,29.86,SSW,212,2.0,6.0,100,0.00,,---,0.03,VWS V14.01,2013-06-24 06:38:00,
2013-06-24 02:43:00,66.0,66.0,29.86,SW,215,2.0,6.0,100,0.00,,---,0.03,VWS V14.01,2013-06-24 06:43:00,
2013-06-24 02:48:00,66.0,66.0,29.86,SW,232,3.0,6.0,100,0.00,,---,0.03,VWS V14.01,2013-06-24 06:48:00,
2013-06-24 02:54:00,64.7,64.7,29.86,WSW,239,4.0,6.0,100,0.00,,---,0.03,VWS V14.01,2013-06-24 06:54:00,
2013-06-24 02:59:00,64.7,64.7,29.86,WSW,240,5.0,6.0,100,0.00,,---,0.03,VWS V14.01,2013-06-24 06:59:00,
2013-06-24 03:04:00,64.7,64.7,29.86,WSW,240,4.0,5.0,100,0.00,,---,0.03,VWS V14.01,2013-06-24 07:04:00,
2013-06-24 03:09:00,64.7,64.7,29.86,WSW,243,6.0,6.0,100,0.00,,---,0.03,VWS V14.01,2013-06-24 07:09:00,
2013-06-24 03:14:00,64.3,64.3,29.86,WSW,247,5.0,6.0,100,0.00,,---,0.03,VWS V14.01,2013-06-24 07:14:00,
2013-06-24 03:19:00,64.3,64.3,29.85,WSW,248,5.0,6.0,100,0.00,,---,0.03,VWS V14.01,2013-06-24 07:19:00,
2013-06-24 03:25:00,65.0,65.0,29.85,WSW,247,5.0,6.0,100,0.00,,---,0.03,VWS V14.01,2013-06-24 07:25:00,
2013-06-24 03:30:00,65.0,65.0,29.85,WSW,247,5.0,6.0,100,0.00,,---,0.03,VWS V14.01,2013-06-24 07:30:00,
2013-06-24 03:35:00,65.0,65.0,29.86,WSW,247,1.0,6.0,100,0.00,,---,0.03,VWS V14.01,2013-06-24 07:35:00,
2013-06-24 03:40:00,65.0,65.0,29.86,WSW,247,1.0,6.0,100,0.00,,---,0.03,VWS V14.01,2013-06-24 07:40:00,
2013-06-24 03:45:00,64.8,64.8,29.85,WSW,247,6.0,6.0,100,0.00,,---,0.03,VWS V14.01,2013-06-24 07:45:00,
2013-06-24 03:51:00,64.8,64.8,29.85,WSW,247,5.0,6.0,100,0.00,,---,0.03,VWS V14.01,2013-06-24 07:51:00,
2013-06-24 03:56:00,65.3,65.3,29.85,WSW,247,5.0,6.0,100,0.00,,---,0.03,VWS V14.01,2013-06-24 07:56:00,
2013-06-24 04:01:00,65.3,65.3,29.85,WSW,247,4.0,4.0,100,0.00,,---,0.03,VWS V14.01,2013-06-24 08:01:00,
2013-06-24 04:06:00,65.3,65.3,29.85,WSW,247,4.0,4.0,100,0.00,,---,0.03,VWS V14.01,2013-06-24 08:06:00,
2013-06-24 04:11:00,65.3,65.3,29.85,WSW,247,0.0,4.0,100,0.00,,---,0.03,VWS V14.01,2013-06-24 08:11:00,
2013-06-24 04:16:00,65.3,65.3,29.85,WSW,247,0.0,4.0,100,0.00,,---,0.03,VWS V14.01,2013-06-24 08:16:00,
2013-06-24 04:21:00,65.6,65.6,29.85,WSW,247,0.0,4.0,100,0.00,,---,0.03,VWS V14.01,2013-06-24 08:21:00,
2013-06-24 04:26:00,65.6,65.6,29.85,WSW,247,0.0,4.0,100,0.00,,---,0.03,VWS V14.01,2013-06-24 08:26:00,
2013-06-24 04:31:00,65.6,65.6,29.85,WSW,247,0.0,4.0,100,0.00,,---,0.03,VWS V14.01,2013-06-24 08:31:00,
2013-06-24 04:36:00,65.0,65.0,29.85,WSW,247,0.0,4.0,100,0.00,,---,0.03,VWS V14.01,2013-06-24 08:36:00,
2013-06-24 04:41:00,65.0,65.0,29.85,WSW,247,0.0,4.0,100,0.00,,---,0.03,VWS V14.01,2013-06-24 08:41:00,
2013-06-24 04:47:00,65.0,65.0,29.84,WSW,247,0.0,4.0,100,0.00,,---,0.03,VWS V14.01,2013-06-24 08:47:00,
2013-06-24 04:52:00,65.0,65.0,29.84,SSW,196,1.0,4.0,100,0.00,,---,0.03,VWS V14.01,2013-06-24 08:52:00,
2013-06-24 04:57:00,65.6,65.6,29.84,SW,229,3.0,4.0,100,0.00,,---,0.03,VWS V14.01,2013-06-24 08:57:00,
2013-06-24 05:02:00,65.6,65.6,29.84,SW,232,3.0,3.0,100,0.00,,---,0.03,VWS V14.01,2013-06-24 09:02:00,
2013-06-24 05:08:00,65.6,65.6,29.84,WSW,240,1.0,3.0,100,0.00,,---,0.03,VWS V14.01,2013-06-24 09:08:00,
2013-06-24 05:13:00,66.1,66.1,29.84,WSW,240,2.0,3.0,100,0.00,,---,0.03,VWS V14.01,2013-06-24 09:13:00,
2013-06-24 05:18:00,66.4,66.4,29.85,WSW,240,0.0,3.0,100,0.00,,---,0.03,VWS V14.01,2013-06-24 09:18:00,
2013-06-24 05:23:00,66.4,66.4,29.85,WSW,240,2.0,3.0,100,0.00,,---,0.03,VWS V14.01,2013-06-24 09:23:00,
2013-06-24 05:28:00,66.4,66.4,29.85,WSW,240,0.0,3.0,100,0.00,,---,0.03,VWS V14.01,2013-06-24 09:28:00,
2013-06-24 05:33:00,66.4,66.4,29.85,WSW,251,0.0,3.0,100,0.00,,---,0.03,VWS V14.01,2013-06-24 09:33:00,
2013-06-24 05:38:00,66.4,66.4,29.85,WSW,251,0.0,3.0,100,0.00,,---,0.03,VWS V14.01,2013-06-24 09:38:00,
2013-06-24 05:44:00,66.4,66.4,29.85,WSW,251,0.0,3.0,100,0.00,,---,0.03,VWS V14.01,2013-06-24 09:44:00,
2013-06-24 05:49:00,66.4,66.4,29.85,SW,232,0.0,3.0,100,0.00,,---,0.03,VWS V14.01,2013-06-24 09:49:00,
2013-06-24 05:54:00,66.3,66.3,29.85,SW,232,0.0,3.0,100,0.00,,---,0.03,VWS V14.01,2013-06-24 09:54:00,
2013-06-24 05:59:00,66.3,66.3,29.85,SW,229,0.0,3.0,100,0.00,,---,0.03,VWS V14.01,2013-06-24 09:59:00,
2013-06-24 06:04:00,66.3,66.3,29.85,SW,229,0.0,0.0,100,0.00,,---,0.03,VWS V14.01,2013-06-24 10:04:00,
2013-06-24 06:10:00,66.3,66.3,29.85,SW,229,0.0,0.0,100,0.00,,---,0.03,VWS V14.01,2013-06-24 10:10:00,
2013-06-24 06:15:00,66.4,66.4,29.85,SW,227,0.0,0.0,100,0.00,,---,0.03,VWS V14.01,2013-06-24 10:15:00,
2013-06-24 06:20:00,66.4,66.4,29.85,SW,227,0.0,0.0,100,0.00,,---,0.03,VWS V14.01,2013-06-24 10:20:00,
2013-06-24 06:26:00,67.1,67.1,29.85,SW,227,0.0,0.0,100,0.00,,---,0.03,VWS V14.01,2013-06-24 10:26:00,
2013-06-24 06:31:00,66.6,66.6,29.84,SW,227,0.0,0.0,100,0.00,,---,0.03,VWS V14.01,2013-06-24 10:31:00,
2013-06-24 06:36:00,66.6,66.6,29.84,SW,227,0.0,0.0,100,0.00,,---,0.03,VWS V14.01,2013-06-24 10:36:00,
2013-06-24 06:42:00,66.6,66.6,29.84,SW,227,0.0,0.0,100,0.00,,---,0.03,VWS V14.01,2013-06-24 10:42:00,
2013-06-24 06:47:00,67.3,67.3,29.85,SW,227,0.0,0.0,100,0.00,,---,0.03,VWS V14.01,2013-06-24 10:47:00,
2013-06-24 06:52:00,67.4,67.4,29.85,SW,227,0.0,0.0,100,0.00,,---,0.03,VWS V14.01,2013-06-24 10:52:00,
2013-06-24 06:57:00,68.3,68.3,29.85,SW,227,0.0,0.0,100,0.00,,---,0.03,VWS V14.01,2013-06-24 10:57:00,
2013-06-24 07:02:00,68.3,68.3,29.84,SW,229,0.0,0.0,100,0.00,,---,0.03,VWS V14.01,2013-06-24 11:02:00,
2013-06-24 07:07:00,68.1,68.1,29.84,SW,229,0.0,0.0,100,0.00,,---,0.03,VWS V14.01,2013-06-24 11:07:00,
2013-06-24 07:12:00,68.1,68.1,29.84,SW,229,0.0,0.0,100,0.00,,---,0.03,VWS V14.01,2013-06-24 11:12:00,
2013-06-24 07:18:00,68.9,68.9,29.84,SW,229,0.0,0.0,100,0.00,,---,0.03,VWS V14.01,2013-06-24 11:18:00,
2013-06-24 07:23:00,68.3,68.3,29.84,SW,229,0.0,0.0,100,0.00,,---,0.03,VWS V14.01,2013-06-24 11:23:00,
2013-06-24 07:28:00,68.1,68.1,29.84,SW,230,0.0,0.0,100,0.00,,---,0.03,VWS V14.01,2013-06-24 11:28:00,
2013-06-24 07:33:00,68.6,68.6,29.84,SW,230,0.0,0.0,100,0.00,,---,0.03,VWS V14.01,2013-06-24 11:33:00,
2013-06-24 07:38:00,69.1,69.1,29.84,SW,230,0.0,0.0,100,0.00,,---,0.03,VWS V14.01,2013-06-24 11:38:00,
2013-06-24 07:43:00,70.1,70.1,29.84,SW,230,0.0,0.0,100,0.00,,---,0.03,VWS V14.01,2013-06-24 11:43:00,
2013-06-24 07:48:00,70.1,70.1,29.84,SW,230,0.0,0.0,100,0.00,,---,0.03,VWS V14.01,2013-06-24 11:48:00,
2013-06-24 07:53:00,69.6,69.6,29.84,SW,230,0.0,0.0,100,0.00,,---,0.03,VWS V14.01,2013-06-24 11:53:00,
2013-06-24 07:59:00,69.6,69.6,29.84,SW,230,0.0,0.0,100,0.00,,---,0.03,VWS V14.01,2013-06-24 11:59:00,
2013-06-24 08:04:00,69.6,69.6,29.84,SW,230,0.0,0.0,100,0.00,,---,0.03,VWS V14.01,2013-06-24 12:04:00,
2013-06-24 08:10:00,70.3,70.3,29.84,SW,230,0.0,0.0,100,0.00,,---,0.03,VWS V14.01,2013-06-24 12:10:00,
2013-06-24 08:15:00,70.1,70.1,29.84,SSW,203,0.0,0.0,100,0.00,,---,0.03,VWS V14.01,2013-06-24 12:15:00,
2013-06-24 08:20:00,70.1,70.1,29.85,SSW,203,0.0,0.0,100,0.00,,---,0.03,VWS V14.01,2013-06-24 12:20:00,
2013-06-24 08:25:00,70.1,70.1,29.85,SSW,203,0.0,0.0,100,0.00,,---,0.03,VWS V14.01,2013-06-24 12:25:00,
2013-06-24 08:30:00,69.4,69.4,29.85,SSW,203,0.0,0.0,100,0.00,,---,0.03,VWS V14.01,2013-06-24 12:30:00,
2013-06-24 08:35:00,69.9,69.9,29.85,SSW,205,0.0,0.0,100,0.00,,---,0.03,VWS V14.01,2013-06-24 12:35:00,
2013-06-24 08:40:00,69.9,69.9,29.85,SSW,206,0.0,0.0,100,0.00,,---,0.03,VWS V14.01,2013-06-24 12:40:00,
2013-06-24 08:45:00,69.9,69.9,29.84,SSW,206,0.0,0.0,100,0.00,,---,0.03,VWS V14.01,2013-06-24 12:45:00,
2013-06-24 08:50:00,69.9,69.9,29.84,SSW,206,0.0,0.0,100,0.00,,---,0.03,VWS V14.01,2013-06-24 12:50:00,
2013-06-24 08:55:00,69.9,69.9,29.84,SSW,206,0.0,0.0,100,0.00,,---,0.03,VWS V14.01,2013-06-24 12:55:00,
2013-06-24 09:00:00,69.9,69.9,29.84,SSW,208,0.0,0.0,100,0.00,,---,0.03,VWS V14.01,2013-06-24 13:00:00,
2013-06-24 09:06:00,69.9,67.5,29.84,SSW,208,0.0,0.0,92,0.00,,---,0.03,VWS V14.01,2013-06-24 13:06:00,
2013-06-24 09:11:00,69.9,67.5,29.84,SSW,208,0.0,0.0,92,0.00,,---,0.03,VWS V14.01,2013-06-24 13:11:00,
2013-06-24 09:16:00,69.9,67.5,29.83,SSW,208,0.0,0.0,92,0.00,,---,0.03,VWS V14.01,2013-06-24 13:16:00,
2013-06-24 09:22:00,69.9,67.5,29.83,SSW,208,0.0,0.0,92,0.00,,---,0.03,VWS V14.01,2013-06-24 13:22:00,
2013-06-24 09:27:00,69.9,67.5,29.83,SSW,196,0.0,0.0,92,0.00,,---,0.03,VWS V14.01,2013-06-24 13:27:00,
2013-06-24 09:32:00,69.9,67.5,29.83,SSW,205,0.0,0.0,92,0.00,,---,0.03,VWS V14.01,2013-06-24 13:32:00,
2013-06-24 09:37:00,72.8,70.3,29.83,SSW,196,0.0,0.0,92,0.00,,---,0.03,VWS V14.01,2013-06-24 13:37:00,
2013-06-24 09:42:00,72.8,70.3,29.83,SSW,196,0.0,0.0,92,0.00,,---,0.03,VWS V14.01,2013-06-24 13:42:00,
2013-06-24 09:47:00,73.7,71.2,29.83,SSW,208,0.0,0.0,92,0.00,,---,0.03,VWS V14.01,2013-06-24 13:47:00,
2013-06-24 09:52:00,73.7,71.2,29.83,SSW,206,0.0,0.0,92,0.00,,---,0.03,VWS V14.01,2013-06-24 13:52:00,
2013-06-24 09:58:00,73.7,71.2,29.83,SSW,213,0.0,0.0,92,0.00,,---,0.03,VWS V14.01,2013-06-24 13:58:00,
2013-06-24 10:03:00,74.0,71.5,29.82,SSW,213,0.0,0.0,92,0.00,,---,0.03,VWS V14.01,2013-06-24 14:03:00,
2013-06-24 10:08:00,74.6,72.1,29.82,SSW,212,0.0,0.0,92,0.00,,---,0.03,VWS V14.01,2013-06-24 14:08:00,
2013-06-24 10:13:00,74.6,72.1,29.82,SSW,212,0.0,0.0,92,0.00,,---,0.03,VWS V14.01,2013-06-24 14:13:00,
2013-06-24 10:18:00,74.2,71.7,29.82,SSW,212,0.0,0.0,92,0.00,,---,0.03,VWS V14.01,2013-06-24 14:18:00,
2013-06-24 10:23:00,74.0,71.5,29.82,SSW,212,0.0,0.0,92,0.00,,---,0.03,VWS V14.01,2013-06-24 14:23:00,
2013-06-24 10:28:00,74.0,71.5,29.82,SSW,212,0.0,0.0,92,0.00,,---,0.03,VWS V14.01,2013-06-24 14:28:00,
2013-06-24 10:33:00,72.1,69.7,29.82,SSW,206,0.0,0.0,92,0.00,,---,0.03,VWS V14.01,2013-06-24 14:33:00,
2013-06-24 10:38:00,72.1,69.7,29.82,SSW,206,0.0,0.0,92,0.00,,---,0.03,VWS V14.01,2013-06-24 14:38:00,
2013-06-24 10:43:00,73.7,68.2,29.82,SSW,208,0.0,0.0,83,0.00,,---,0.03,VWS V14.01,2013-06-24 14:43:00,
2013-06-24 10:48:00,73.7,67.2,29.81,SSW,210,0.0,0.0,80,0.00,,---,0.03,VWS V14.01,2013-06-24 14:48:00,
2013-06-24 10:54:00,73.7,67.2,29.81,SSW,210,0.0,0.0,80,0.00,,---,0.03,VWS V14.01,2013-06-24 14:54:00,
2013-06-24 10:59:00,73.7,67.2,29.81,SSW,210,0.0,0.0,80,0.00,,---,0.03,VWS V14.01,2013-06-24 14:59:00,
2013-06-24 11:05:00,74.7,68.1,29.81,SSW,205,3.0,3.0,80,0.00,,---,0.03,VWS V14.01,2013-06-24 15:05:00,
2013-06-24 11:10:00,74.7,68.1,29.81,SSW,210,0.0,3.0,80,0.00,,---,0.03,VWS V14.01,2013-06-24 15:10:00,
2013-06-24 11:15:00,75.4,68.8,29.81,SSW,210,0.0,3.0,80,0.00,,---,0.03,VWS V14.01,2013-06-24 15:15:00,
2013-06-24 11:20:00,75.4,68.8,29.81,SW,222,0.0,3.0,80,0.00,,---,0.03,VWS V14.01,2013-06-24 15:20:00,
2013-06-24 11:26:00,75.4,68.8,29.81,SW,217,2.0,3.0,80,0.00,,---,0.03,VWS V14.01,2013-06-24 15:26:00,
2013-06-24 11:31:00,74.6,68.0,29.81,SW,217,3.0,3.0,80,0.00,,---,0.03,VWS V14.01,2013-06-24 15:31:00,
2013-06-24 11:36:00,74.6,68.0,29.81,SW,217,3.0,3.0,80,0.00,,---,0.03,VWS V14.01,2013-06-24 15:36:00,
2013-06-24 11:41:00,74.6,68.0,29.81,SSW,206,0.0,3.0,80,0.00,,---,0.03,VWS V14.01,2013-06-24 15:41:00,
2013-06-24 11:46:00,74.6,68.0,29.81,SSW,206,0.0,3.0,80,0.00,,---,0.03,VWS V14.01,2013-06-24 15:46:00,
2013-06-24 11:51:00,74.6,68.0,29.81,SSW,206,0.0,3.0,80,0.00,,---,0.03,VWS V14.01,2013-06-24 15:51:00,
2013-06-24 11:56:00,74.6,68.0,29.81,SSW,206,0.0,3.0,80,0.00,,---,0.03,VWS V14.01,2013-06-24 15:56:00,
2013-06-24 12:01:00,74.6,68.0,29.81,SSW,206,0.0,0.0,80,0.00,,---,0.03,VWS V14.01,2013-06-24 16:01:00,
2013-06-24 12:06:00,74.6,68.0,29.81,SSW,205,5.0,5.0,80,0.00,,---,0.03,VWS V14.01,2013-06-24 16:06:00,
2013-06-24 12:11:00,74.6,68.0,29.81,SSW,205,5.0,5.0,80,0.00,,---,0.03,VWS V14.01,2013-06-24 16:11:00,
2013-06-24 12:17:00,74.6,68.0,29.81,SSW,205,5.0,5.0,80,0.00,,---,0.03,VWS V14.01,2013-06-24 16:17:00,
2013-06-24 12:22:00,74.6,68.0,29.81,WSW,243,0.0,5.0,80,0.00,,---,0.03,VWS V14.01,2013-06-24 16:22:00,
2013-06-24 12:27:00,74.6,68.0,29.81,WSW,254,2.0,5.0,80,0.00,,---,0.03,VWS V14.01,2013-06-24 16:27:00,
2013-06-24 12:32:00,74.6,68.0,29.81,WSW,251,5.0,5.0,80,0.00,,---,0.03,VWS V14.01,2013-06-24 16:32:00,
2013-06-24 12:37:00,74.6,68.0,29.81,WSW,251,6.0,6.0,80,0.00,,---,0.03,VWS V14.01,2013-06-24 16:37:00,
2013-06-24 12:42:00,74.6,68.0,29.81,SW,233,5.0,6.0,80,0.00,,---,0.03,VWS V14.01,2013-06-24 16:42:00,
2013-06-24 12:48:00,74.6,68.0,29.81,SW,234,4.0,6.0,80,0.00,,---,0.03,VWS V14.01,2013-06-24 16:48:00,
2013-06-24 12:53:00,74.6,64.6,29.81,WSW,248,0.0,6.0,71,0.00,,---,0.03,VWS V14.01,2013-06-24 16:53:00,
2013-06-24 12:58:00,79.8,69.6,29.81,WSW,248,0.0,6.0,71,0.00,,---,0.03,VWS V14.01,2013-06-24 16:58:00,
2013-06-24 13:03:00,79.8,69.6,29.81,NW,315,0.0,0.0,71,0.00,,---,0.03,VWS V14.01,2013-06-24 17:03:00,
2013-06-24 13:08:00,79.8,69.6,29.81,WNW,301,0.0,0.0,71,0.00,,---,0.03,VWS V14.01,2013-06-24 17:08:00,
2013-06-24 13:13:00,79.8,69.6,29.81,WNW,292,0.0,0.0,71,0.00,,---,0.03,VWS V14.01,2013-06-24 17:13:00,
2013-06-24 13:18:00,79.8,69.6,29.80,WNW,294,0.0,0.0,71,0.00,,---,0.03,VWS V14.01,2013-06-24 17:18:00,
2013-06-24 13:23:00,83.4,73.0,29.80,North,356,0.0,0.0,71,0.00,,---,0.03,VWS V14.01,2013-06-24 17:23:00,
2013-06-24 13:28:00,84.1,73.7,29.80,North,0,0.0,0.0,71,0.00,,---,0.03,VWS V14.01,2013-06-24 17:28:00,
2013-06-24 13:33:00,84.3,73.9,29.80,North,1,0.0,0.0,71,0.00,,---,0.03,VWS V14.01,2013-06-24 17:33:00,
2013-06-24 13:38:00,84.3,73.9,29.80,North,3,0.0,0.0,71,0.00,,---,0.03,VWS V14.01,2013-06-24 17:38:00,
2013-06-24 13:44:00,83.6,73.2,29.80,North,1,0.0,0.0,71,0.00,,---,0.03,VWS V14.01,2013-06-24 17:44:00,
2013-06-24 13:49:00,83.6,73.2,29.80,North,1,0.0,0.0,71,0.00,,---,0.03,VWS V14.01,2013-06-24 17:49:00,
2013-06-24 13:54:00,83.6,73.2,29.80,North,1,0.0,0.0,71,0.00,,---,0.03,VWS V14.01,2013-06-24 17:54:00,
2013-06-24 13:59:00,83.4,73.0,29.80,North,6,0.0,0.0,71,0.00,,---,0.03,VWS V14.01,2013-06-24 17:59:00,
2013-06-24 14:04:00,84.0,73.6,29.79,North,6,0.0,0.0,71,0.00,,---,0.03,VWS V14.01,2013-06-24 18:04:00,
2013-06-24 14:09:00,84.3,73.9,29.79,North,6,0.0,0.0,71,0.00,,---,0.03,VWS V14.01,2013-06-24 18:09:00,
2013-06-24 14:14:00,85.3,74.8,29.79,North,6,0.0,0.0,71,0.00,,---,0.03,VWS V14.01,2013-06-24 18:14:00,
2013-06-24 14:20:00,85.3,74.8,29.79,North,3,0.0,0.0,71,0.00,,---,0.03,VWS V14.01,2013-06-24 18:20:00,
2013-06-24 14:25:00,85.9,75.4,29.79,North,3,1.0,1.0,71,0.00,,---,0.03,VWS V14.01,2013-06-24 18:25:00,
2013-06-24 14:30:00,85.5,70.0,29.78,North,0,0.0,1.0,60,0.00,,---,0.03,VWS V14.01,2013-06-24 18:30:00,
2013-06-24 14:35:00,85.5,70.5,29.78,North,0,0.0,1.0,61,0.00,,---,0.03,VWS V14.01,2013-06-24 18:35:00,
2013-06-24 14:40:00,85.9,70.9,29.78,North,0,0.0,1.0,61,0.00,,---,0.03,VWS V14.01,2013-06-24 18:40:00,
2013-06-24 14:45:00,86.7,71.7,29.79,North,0,0.0,1.0,61,0.00,,---,0.03,VWS V14.01,2013-06-24 18:45:00,
2013-06-24 14:51:00,86.5,71.5,29.79,North,0,0.0,1.0,61,0.00,,---,0.03,VWS V14.01,2013-06-24 18:51:00,
2013-06-24 14:56:00,86.5,71.5,29.79,North,0,0.0,1.0,61,0.00,,---,0.03,VWS V14.01,2013-06-24 18:56:00,
2013-06-24 15:01:00,86.5,71.5,29.78,North,0,0.0,0.0,61,0.00,,---,0.03,VWS V14.01,2013-06-24 19:01:00,
2013-06-24 15:06:00,86.5,71.5,29.78,North,0,0.0,0.0,61,0.00,,---,0.03,VWS V14.01,2013-06-24 19:06:00,
2013-06-24 15:12:00,86.5,71.5,29.78,North,0,0.0,0.0,61,0.00,,---,0.03,VWS V14.01,2013-06-24 19:12:00,
2013-06-24 15:17:00,87.4,72.3,29.78,North,0,0.0,0.0,61,0.00,,---,0.03,VWS V14.01,2013-06-24 19:17:00,
2013-06-24 15:22:00,87.0,71.9,29.78,North,0,0.0,0.0,61,0.00,,---,0.03,VWS V14.01,2013-06-24 19:22:00,
2013-06-24 15:27:00,86.5,71.5,29.78,North,359,0.0,0.0,61,0.00,,---,0.03,VWS V14.01,2013-06-24 19:27:00,
2013-06-24 15:32:00,86.5,71.5,29.78,North,4,0.0,0.0,61,0.00,,---,0.03,VWS V14.01,2013-06-24 19:32:00,
2013-06-24 15:37:00,86.5,71.5,29.78,North,3,0.0,0.0,61,0.00,,---,0.03,VWS V14.01,2013-06-24 19:37:00,
2013-06-24 15:42:00,86.5,71.5,29.78,North,6,0.0,0.0,61,0.00,,---,0.03,VWS V14.01,2013-06-24 19:42:00,
2013-06-24 15:47:00,86.5,71.5,29.77,North,6,0.0,0.0,61,0.00,,---,0.03,VWS V14.01,2013-06-24 19:47:00,
2013-06-24 15:53:00,86.7,71.7,29.77,North,6,0.0,0.0,61,0.00,,---,0.03,VWS V14.01,2013-06-24 19:53:00,
2013-06-24 15:58:00,87.0,71.9,29.77,West,263,0.0,0.0,61,0.00,,---,0.03,VWS V14.01,2013-06-24 19:58:00,
2013-06-24 16:03:00,86.3,71.3,29.76,West,263,2.0,2.0,61,0.00,,---,0.03,VWS V14.01,2013-06-24 20:03:00,
2013-06-24 16:08:00,86.3,71.3,29.76,WSW,243,3.0,5.0,61,0.00,,---,0.03,VWS V14.01,2013-06-24 20:08:00,
2013-06-24 16:13:00,84.3,69.4,29.76,West,264,0.0,5.0,61,0.00,,---,0.03,VWS V14.01,2013-06-24 20:13:00,
2013-06-24 16:19:00,84.3,69.4,29.76,West,264,0.0,5.0,61,0.00,,---,0.03,VWS V14.01,2013-06-24 20:19:00,
2013-06-24 16:24:00,84.1,69.2,29.76,WSW,257,0.0,5.0,61,0.00,,---,0.03,VWS V14.01,2013-06-24 20:24:00,
2013-06-24 16:29:00,84.1,70.2,29.76,SSW,192,0.0,5.0,63,0.00,,---,0.03,VWS V14.01,2013-06-24 20:29:00,
2013-06-24 16:34:00,84.1,70.2,29.76,SSW,208,0.0,5.0,63,0.00,,---,0.03,VWS V14.01,2013-06-24 20:34:00,
2013-06-24 16:40:00,82.8,68.9,29.76,SSW,205,0.0,5.0,63,0.00,,---,0.03,VWS V14.01,2013-06-24 20:40:00,
2013-06-24 16:45:00,82.2,68.4,29.76,SSW,203,0.0,6.0,63,0.00,,---,0.03,VWS V14.01,2013-06-24 20:45:00,
2013-06-24 16:50:00,82.2,68.4,29.76,SSW,203,0.0,6.0,63,0.00,,---,0.03,VWS V14.01,2013-06-24 20:50:00,
2013-06-24 16:56:00,82.2,68.4,29.76,SSW,212,0.0,6.0,63,0.00,,---,0.03,VWS V14.01,2013-06-24 20:56:00,
2013-06-24 17:01:00,82.2,68.4,29.76,South,188,0.0,6.0,63,0.00,,---,0.03,VWS V14.01,2013-06-24 21:01:00,
2013-06-24 17:06:00,81.8,68.4,29.76,SSW,199,0.0,0.0,64,0.00,,---,0.03,VWS V14.01,2013-06-24 21:06:00,
2013-06-24 17:11:00,81.6,68.2,29.76,South,188,0.0,0.0,64,0.00,,---,0.03,VWS V14.01,2013-06-24 21:11:00,
2013-06-24 17:16:00,81.6,68.2,29.75,SSW,208,0.0,0.0,64,0.00,,---,0.03,VWS V14.01,2013-06-24 21:16:00,
2013-06-24 17:21:00,81.6,68.2,29.75,SSW,212,3.0,3.0,64,0.00,,---,0.03,VWS V14.01,2013-06-24 21:21:00,
2013-06-24 17:26:00,80.5,67.2,29.75,SSW,198,0.0,3.0,64,0.00,,---,0.03,VWS V14.01,2013-06-24 21:26:00,
2013-06-24 17:31:00,79.9,66.7,29.75,SSW,202,0.0,3.0,64,0.00,,---,0.03,VWS V14.01,2013-06-24 21:31:00,
2013-06-24 17:37:00,79.9,66.7,29.75,SSW,199,0.0,3.0,64,0.00,,---,0.03,VWS V14.01,2013-06-24 21:37:00,
2013-06-24 17:42:00,79.9,68.4,29.75,SSE,158,0.0,3.0,68,0.00,,---,0.03,VWS V14.01,2013-06-24 21:42:00,
2013-06-24 17:47:00,80.1,68.6,29.75,SSE,148,0.0,3.0,68,0.00,,---,0.03,VWS V14.01,2013-06-24 21:47:00,
2013-06-24 17:52:00,80.1,68.6,29.75,South,172,0.0,3.0,68,0.00,,---,0.03,VWS V14.01,2013-06-24 21:52:00,
2013-06-24 17:57:00,79.9,68.4,29.75,SSW,196,0.0,3.0,68,0.00,,---,0.03,VWS V14.01,2013-06-24 21:57:00,
2013-06-24 18:02:00,79.9,68.4,29.75,SSW,198,0.0,0.0,68,0.00,,---,0.03,VWS V14.01,2013-06-24 22:02:00,
2013-06-24 18:07:00,79.9,68.0,29.75,SSW,198,0.0,0.0,67,0.00,,---,0.03,VWS V14.01,2013-06-24 22:07:00,
2013-06-24 18:12:00,79.9,68.0,29.75,SSW,198,0.0,0.0,67,0.00,,---,0.03,VWS V14.01,2013-06-24 22:12:00,
2013-06-24 18:17:00,79.9,68.0,29.75,SSW,196,3.0,3.0,67,0.00,,---,0.03,VWS V14.01,2013-06-24 22:17:00,
2013-06-24 18:23:00,79.9,68.0,29.75,SSW,203,2.0,3.0,67,0.00,,---,0.03,VWS V14.01,2013-06-24 22:23:00,
2013-06-24 18:28:00,79.9,68.0,29.75,SSW,195,0.0,3.0,67,0.00,,---,0.03,VWS V14.01,2013-06-24 22:28:00,
2013-06-24 18:33:00,79.9,68.0,29.75,SSW,193,0.0,3.0,67,0.00,,---,0.03,VWS V14.01,2013-06-24 22:33:00,
2013-06-24 18:38:00,78.3,66.4,29.75,SSW,193,0.0,3.0,67,0.00,,---,0.03,VWS V14.01,2013-06-24 22:38:00,
2013-06-24 18:43:00,78.3,66.4,29.75,SSW,200,0.0,3.0,67,0.00,,---,0.03,VWS V14.01,2013-06-24 22:43:00,
2013-06-24 18:49:00,77.4,65.6,29.75,SSW,203,3.0,3.0,67,0.00,,---,0.03,VWS V14.01,2013-06-24 22:49:00,
2013-06-24 18:54:00,76.8,65.0,29.75,SSW,209,0.0,6.0,67,0.00,,---,0.03,VWS V14.01,2013-06-24 22:54:00,
2013-06-24 18:59:00,76.7,64.9,29.75,SSW,202,3.0,6.0,67,0.00,,---,0.03,VWS V14.01,2013-06-24 22:59:00,
2013-06-24 19:04:00,76.7,64.9,29.75,SSW,208,0.0,3.0,67,0.00,,---,0.03,VWS V14.01,2013-06-24 23:04:00,
2013-06-24 19:09:00,75.8,64.1,29.75,SSW,202,0.0,3.0,67,0.00,,---,0.03,VWS V14.01,2013-06-24 23:09:00,
2013-06-24 19:14:00,75.8,64.1,29.75,SSW,200,0.0,3.0,67,0.00,,---,0.03,VWS V14.01,2013-06-24 23:14:00,
2013-06-24 19:19:00,75.8,64.1,29.75,SSW,200,0.0,3.0,67,0.00,,---,0.03,VWS V14.01,2013-06-24 23:19:00,
2013-06-24 19:24:00,74.9,63.2,29.75,SSW,200,0.0,3.0,67,0.00,,---,0.03,VWS V14.01,2013-06-24 23:24:00,
2013-06-24 19:29:00,74.6,62.9,29.75,SSW,200,0.0,3.0,67,0.00,,---,0.03,VWS V14.01,2013-06-24 23:29:00,
2013-06-24 19:35:00,74.2,62.5,29.75,SSW,200,0.0,3.0,67,0.00,,---,0.03,VWS V14.01,2013-06-24 23:35:00,
2013-06-24 19:40:00,74.0,66.0,29.75,SSW,200,0.0,3.0,76,0.00,,---,0.03,VWS V14.01,2013-06-24 23:40:00,
2013-06-24 19:45:00,74.0,66.0,29.75,SSW,200,0.0,3.0,76,0.00,,---,0.03,VWS V14.01,2013-06-24 23:45:00,
2013-06-24 19:50:00,74.0,66.0,29.75,SSW,200,0.0,3.0,76,0.00,,---,0.03,VWS V14.01,2013-06-24 23:50:00,
2013-06-24 19:55:00,74.2,66.2,29.75,SSW,200,0.0,3.0,76,0.00,,---,0.03,VWS V14.01,2013-06-24 23:55:00,
2013-06-24 20:00:00,74.2,66.2,29.75,SSW,200,0.0,3.0,76,0.00,,---,0.03,VWS V14.01,2013-06-25 00:00:00,
2013-06-24 20:06:00,74.0,66.0,29.75,SSW,205,2.0,2.0,76,0.00,,---,0.03,VWS V14.01,2013-06-25 00:06:00,
2013-06-24 20:11:00,74.0,66.0,29.75,SSW,205,0.0,2.0,76,0.00,,---,0.03,VWS V14.01,2013-06-25 00:11:00,
2013-06-24 20:16:00,74.0,65.6,29.75,SSW,205,0.0,2.0,75,0.00,,---,0.03,VWS V14.01,2013-06-25 00:16:00,
2013-06-24 20:22:00,74.0,65.6,29.75,SSW,205,0.0,2.0,75,0.00,,---,0.03,VWS V14.01,2013-06-25 00:22:00,
2013-06-24 20:27:00,73.3,64.9,29.75,SSW,203,0.0,2.0,75,0.00,,---,0.03,VWS V14.01,2013-06-25 00:27:00,
2013-06-24 20:33:00,73.3,64.9,29.75,SSW,196,0.0,2.0,75,0.00,,---,0.03,VWS V14.01,2013-06-25 00:33:00,
2013-06-24 20:38:00,73.3,65.3,29.75,SSW,195,0.0,2.0,76,0.00,,---,0.03,VWS V14.01,2013-06-25 00:38:00,
2013-06-24 20:43:00,73.3,65.3,29.75,South,186,0.0,2.0,76,0.00,,---,0.03,VWS V14.01,2013-06-25 00:43:00,
2013-06-24 20:49:00,73.3,65.3,29.76,South,186,0.0,2.0,76,0.00,,---,0.03,VWS V14.01,2013-06-25 00:49:00,
2013-06-24 20:54:00,68.8,60.9,29.76,SSE,164,5.0,5.0,76,0.00,,---,0.03,VWS V14.01,2013-06-25 00:54:00,
2013-06-24 20:59:00,68.8,60.9,29.76,South,191,6.0,6.0,76,0.00,,---,0.03,VWS V14.01,2013-06-25 00:59:00,
2013-06-24 21:05:00,67.4,59.6,29.76,South,191,2.0,6.0,76,0.00,,---,0.03,VWS V14.01,2013-06-25 01:05:00,
2013-06-24 21:10:00,67.4,59.6,29.76,South,185,1.0,6.0,76,0.00,,---,0.03,VWS V14.01,2013-06-25 01:10:00,
2013-06-24 21:15:00,67.3,59.5,29.76,SSW,192,0.0,6.0,76,0.00,,---,0.03,VWS V14.01,2013-06-25 01:15:00,
2013-06-24 21:20:00,67.3,59.5,29.77,South,191,0.0,6.0,76,0.00,,---,0.03,VWS V14.01,2013-06-25 01:20:00,
2013-06-24 21:25:00,67.4,59.6,29.77,South,191,0.0,6.0,76,0.00,,---,0.03,VWS V14.01,2013-06-25 01:25:00,
2013-06-24 21:30:00,67.6,59.8,29.77,South,191,2.0,6.0,76,0.00,,---,0.03,VWS V14.01,2013-06-25 01:30:00,
2013-06-24 21:35:00,67.6,59.8,29.77,SSW,196,2.0,6.0,76,0.00,,---,0.03,VWS V14.01,2013-06-25 01:35:00,
2013-06-24 21:41:00,67.6,59.8,29.77,SSW,202,0.0,6.0,76,0.00,,---,0.03,VWS V14.01,2013-06-25 01:41:00,
2013-06-24 21:46:00,67.6,62.9,29.78,SSW,202,0.0,6.0,85,0.00,,---,0.03,VWS V14.01,2013-06-25 01:46:00,
2013-06-24 21:51:00,67.3,62.6,29.78,SSW,202,0.0,6.0,85,0.00,,---,0.03,VWS V14.01,2013-06-25 01:51:00,
2013-06-24 21:56:00,67.3,62.6,29.78,SSW,213,0.0,6.0,85,0.00,,---,0.03,VWS V14.01,2013-06-25 01:56:00,
2013-06-24 22:01:00,66.9,62.2,29.78,SW,215,1.0,1.0,85,0.00,,---,0.03,VWS V14.01,2013-06-25 02:01:00,
2013-06-24 22:06:00,66.9,62.2,29.78,WSW,240,5.0,5.0,85,0.00,,---,0.03,VWS V14.01,2013-06-25 02:06:00,
2013-06-24 22:11:00,66.9,62.2,29.78,WSW,240,5.0,5.0,85,0.00,,---,0.03,VWS V14.01,2013-06-25 02:11:00,
2013-06-24 22:16:00,66.9,62.2,29.77,SW,236,7.0,7.0,85,0.00,,---,0.03,VWS V14.01,2013-06-25 02:16:00,
2013-06-24 22:22:00,66.9,62.2,29.77,SW,234,5.0,7.0,85,0.00,,---,0.03,VWS V14.01,2013-06-25 02:22:00,
2013-06-24 22:27:00,66.9,62.2,29.77,SW,234,6.0,7.0,85,0.00,,---,0.03,VWS V14.01,2013-06-25 02:27:00,
2013-06-24 22:32:00,66.9,62.2,29.76,SW,234,6.0,7.0,85,0.00,,---,0.03,VWS V14.01,2013-06-25 02:32:00,
2013-06-24 22:37:00,66.9,62.2,29.76,WSW,237,8.0,8.0,85,0.00,,---,0.03,VWS V14.01,2013-06-25 02:37:00,
2013-06-24 22:42:00,66.9,62.2,29.76,WSW,239,8.0,8.0,85,0.00,,---,0.03,VWS V14.01,2013-06-25 02:42:00,
2013-06-24 22:47:00,66.9,62.2,29.76,SW,234,10.0,10.0,85,0.00,,---,0.03,VWS V14.01,2013-06-25 02:47:00,
2013-06-24 22:52:00,68.4,63.7,29.76,SW,234,7.0,10.0,85,0.00,,---,0.03,VWS V14.01,2013-06-25 02:52:00,
2013-06-24 22:57:00,68.4,63.7,29.76,SW,234,7.0,10.0,85,0.00,,---,0.03,VWS V14.01,2013-06-25 02:57:00,
2013-06-24 23:02:00,68.4,63.7,29.76,SW,236,7.0,7.0,85,0.00,,---,0.03,VWS V14.01,2013-06-25 03:02:00,
2013-06-24 23:08:00,68.4,63.7,29.76,WSW,243,6.0,7.0,85,0.00,,---,0.03,VWS V14.01,2013-06-25 03:08:00,
2013-06-24 23:13:00,68.9,64.2,29.76,WSW,237,8.0,8.0,85,0.00,,---,0.03,VWS V14.01,2013-06-25 03:13:00,
2013-06-24 23:18:00,69.1,64.1,29.76,WSW,239,6.0,8.0,84,0.00,,---,0.03,VWS V14.01,2013-06-25 03:18:00,
2013-06-24 23:23:00,69.1,64.1,29.76,WSW,239,5.0,8.0,84,0.00,,---,0.03,VWS V14.01,2013-06-25 03:23:00,
2013-06-24 23:29:00,69.1,64.1,29.76,WSW,239,5.0,8.0,84,0.00,,---,0.03,VWS V14.01,2013-06-25 03:29:00,
2013-06-24 23:34:00,68.9,64.2,29.76,SW,227,6.0,8.0,85,0.00,,---,0.03,VWS V14.01,2013-06-25 03:34:00,
2013-06-24 23:39:00,68.9,64.2,29.76,SW,226,6.0,8.0,85,0.00,,---,0.03,VWS V14.01,2013-06-25 03:39:00,
2013-06-24 23:45:00,69.4,64.7,29.76,SW,226,3.0,8.0,85,0.00,,---,0.03,VWS V14.01,2013-06-25 03:45:00,
2013-06-24 23:50:00,69.4,64.7,29.76,SW,224,4.0,8.0,85,0.00,,---,0.03,VWS V14.01,2013-06-25 03:50:00,
2013-06-24 23:55:00,69.4,64.7,29.76,SW,226,5.0,8.0,85,0.00,,---,0.03,VWS V14.01,2013-06-25 03:55:00,